sensor_id;sensor_type;location;lat;lon;timestamp;pressure;altitude;pressure_sealevel;temperature;humidity
46534;BME280;32260;52.008;4.752;2023-02-14T00:02:18;103573.56;;;5.84;69.05
46534;BME280;32260;52.008;4.752;2023-02-14T00:04:44;103570.88;;;5.82;68.97
46534;BME280;32260;52.008;4.752;2023-02-14T00:07:13;103576.16;;;5.82;68.96
46534;BME280;32260;52.008;4.752;2023-02-14T00:09:39;103583.97;;;5.81;68.90
46534;BME280;32260;52.008;4.752;2023-02-14T00:12:05;103581.25;;;5.79;68.90
46534;BME280;32260;52.008;4.752;2023-02-14T00:14:32;103575.06;;;5.77;68.89
46534;BME280;32260;52.008;4.752;2023-02-14T00:17:18;103575.88;;;5.76;69.27
46534;BME280;32260;52.008;4.752;2023-02-14T00:19:44;103573.19;;;5.75;68.75
46534;BME280;32260;52.008;4.752;2023-02-14T00:22:10;103566.06;;;5.72;68.81
46534;BME280;32260;52.008;4.752;2023-02-14T00:24:37;103567.66;;;5.69;68.96
46534;BME280;32260;52.008;4.752;2023-02-14T00:27:03;103570.22;;;5.67;68.88
46534;BME280;32260;52.008;4.752;2023-02-14T00:29:31;103562.25;;;5.65;69.04
46534;BME280;32260;52.008;4.752;2023-02-14T00:31:57;103558.56;;;5.62;69.17
46534;BME280;32260;52.008;4.752;2023-02-14T00:34:24;103558.41;;;5.57;69.23
46534;BME280;32260;52.008;4.752;2023-02-14T00:36:50;103557.41;;;5.55;69.30
46534;BME280;32260;52.008;4.752;2023-02-14T00:39:17;103552.91;;;5.53;69.42
46534;BME280;32260;52.008;4.752;2023-02-14T00:41:43;103551.94;;;5.50;69.58
46534;BME280;32260;52.008;4.752;2023-02-14T00:44:11;103554.56;;;5.50;69.38
46534;BME280;32260;52.008;4.752;2023-02-14T00:46:37;103547.44;;;5.48;69.39
46534;BME280;32260;52.008;4.752;2023-02-14T00:49:04;103553.63;;;5.48;69.72
46534;BME280;32260;52.008;4.752;2023-02-14T00:51:30;103547.50;;;5.49;69.56
46534;BME280;32260;52.008;4.752;2023-02-14T00:53:57;103545.78;;;5.50;69.47
46534;BME280;32260;52.008;4.752;2023-02-14T00:56:23;103536.16;;;5.50;69.44
46534;BME280;32260;52.008;4.752;2023-02-14T00:58:49;103540.53;;;5.50;69.47
46534;BME280;32260;52.008;4.752;2023-02-14T01:01:16;103530.78;;;5.47;69.26
46534;BME280;32260;52.008;4.752;2023-02-14T01:03:43;103539.50;;;5.46;69.12
46534;BME280;32260;52.008;4.752;2023-02-14T01:06:09;103535.88;;;5.44;69.53
46534;BME280;32260;52.008;4.752;2023-02-14T01:08:35;103540.19;;;5.42;69.64
46534;BME280;32260;52.008;4.752;2023-02-14T01:11:19;103541.16;;;5.44;69.37
46534;BME280;32260;52.008;4.752;2023-02-14T01:13:47;103538.41;;;5.41;69.21
46534;BME280;32260;52.008;4.752;2023-02-14T01:16:17;103538.50;;;5.44;68.70
46534;BME280;32260;52.008;4.752;2023-02-14T01:18:44;103536.81;;;5.45;68.68
46534;BME280;32260;52.008;4.752;2023-02-14T01:23:49;103527.81;;;5.40;69.11
46534;BME280;32260;52.008;4.752;2023-02-14T01:26:16;103528.50;;;5.35;69.28
46534;BME280;32260;52.008;4.752;2023-02-14T01:28:43;103531.88;;;5.33;69.22
46534;BME280;32260;52.008;4.752;2023-02-14T01:31:17;103528.31;;;5.31;69.23
46534;BME280;32260;52.008;4.752;2023-02-14T01:33:45;103531.75;;;5.30;68.64
46534;BME280;32260;52.008;4.752;2023-02-14T01:36:18;103529.13;;;5.30;69.06
46534;BME280;32260;52.008;4.752;2023-02-14T01:38:45;103525.47;;;5.26;69.07
46534;BME280;32260;52.008;4.752;2023-02-14T01:41:11;103530.56;;;5.23;69.00
46534;BME280;32260;52.008;4.752;2023-02-14T01:43:59;103528.16;;;5.28;69.04
46534;BME280;32260;52.008;4.752;2023-02-14T01:46:28;103526.06;;;5.21;68.63
46534;BME280;32260;52.008;4.752;2023-02-14T01:49:00;103520.81;;;5.21;68.60
46534;BME280;32260;52.008;4.752;2023-02-14T01:51:28;103528.56;;;5.17;68.53
46534;BME280;32260;52.008;4.752;2023-02-14T01:53:55;103524.13;;;5.16;68.99
46534;BME280;32260;52.008;4.752;2023-02-14T01:56:29;103525.03;;;5.17;68.99
46534;BME280;32260;52.008;4.752;2023-02-14T01:59:01;103527.53;;;5.14;69.03
46534;BME280;32260;52.008;4.752;2023-02-14T02:01:29;103522.13;;;5.11;69.12
46534;BME280;32260;52.008;4.752;2023-02-14T02:03:58;103523.84;;;5.10;69.12
46534;BME280;32260;52.008;4.752;2023-02-14T02:06:29;103529.06;;;5.09;69.23
46534;BME280;32260;52.008;4.752;2023-02-14T02:11:39;103530.47;;;5.02;69.64
46534;BME280;32260;52.008;4.752;2023-02-14T02:14:05;103529.44;;;4.98;69.01
46534;BME280;32260;52.008;4.752;2023-02-14T02:25:13;103517.75;;;4.92;69.32
46534;BME280;32260;52.008;4.752;2023-02-14T02:28:28;103525.69;;;4.93;69.54
46534;BME280;32260;52.008;4.752;2023-02-14T02:31:25;103526.44;;;4.91;69.25
46534;BME280;32260;52.008;4.752;2023-02-14T02:34:12;103531.50;;;4.86;69.47
46534;BME280;32260;52.008;4.752;2023-02-14T02:38:05;103527.75;;;4.81;69.57
46534;BME280;32260;52.008;4.752;2023-02-14T02:43:42;103522.41;;;4.79;69.20
46534;BME280;32260;52.008;4.752;2023-02-14T02:45:38;103517.03;;;4.76;69.63
46534;BME280;32260;52.008;4.752;2023-02-14T02:48:33;103518.69;;;4.74;69.66
46534;BME280;32260;52.008;4.752;2023-02-14T02:51:08;103515.06;;;4.72;69.42
46534;BME280;32260;52.008;4.752;2023-02-14T02:54:05;103510.75;;;4.73;69.50
46534;BME280;32260;52.008;4.752;2023-02-14T02:56:38;103506.38;;;4.73;69.23
46534;BME280;32260;52.008;4.752;2023-02-14T03:04:38;103506.09;;;4.67;70.14
46534;BME280;32260;52.008;4.752;2023-02-14T03:07:38;103506.31;;;4.72;69.97
46534;BME280;32260;52.008;4.752;2023-02-14T03:10:11;103511.38;;;4.86;69.36
46534;BME280;32260;52.008;4.752;2023-02-14T03:23:50;103501.59;;;4.64;69.90
46534;BME280;32260;52.008;4.752;2023-02-14T03:26:27;103506.78;;;4.63;70.00
46534;BME280;32260;52.008;4.752;2023-02-14T03:32:10;103514.34;;;4.57;70.42
46534;BME280;32260;52.008;4.752;2023-02-14T03:37:31;103502.56;;;4.48;69.83
46534;BME280;32260;52.008;4.752;2023-02-14T03:41:06;103494.09;;;4.54;69.87
46534;BME280;32260;52.008;4.752;2023-02-14T03:43:11;103487.94;;;4.53;70.28
46534;BME280;32260;52.008;4.752;2023-02-14T03:46:01;103493.13;;;4.52;70.06
46534;BME280;32260;52.008;4.752;2023-02-14T03:48:29;103498.16;;;4.47;70.21
46534;BME280;32260;52.008;4.752;2023-02-14T03:50:58;103499.81;;;4.45;69.88
46534;BME280;32260;52.008;4.752;2023-02-14T03:53:27;103492.75;;;4.44;69.80
46534;BME280;32260;52.008;4.752;2023-02-14T03:58:38;103496.38;;;4.46;70.34
46534;BME280;32260;52.008;4.752;2023-02-14T04:01:13;103497.19;;;4.45;69.96
46534;BME280;32260;52.008;4.752;2023-02-14T04:03:42;103492.63;;;4.41;69.97
46534;BME280;32260;52.008;4.752;2023-02-14T04:06:09;103496.91;;;4.39;70.10
46534;BME280;32260;52.008;4.752;2023-02-14T04:08:35;103490.66;;;4.37;69.82
46534;BME280;32260;52.008;4.752;2023-02-14T04:11:02;103499.34;;;4.36;70.33
46534;BME280;32260;52.008;4.752;2023-02-14T04:13:30;103494.97;;;4.35;69.99
46534;BME280;32260;52.008;4.752;2023-02-14T04:15:56;103493.06;;;4.32;69.77
46534;BME280;32260;52.008;4.752;2023-02-14T04:18:22;103493.81;;;4.30;70.34
46534;BME280;32260;52.008;4.752;2023-02-14T04:21:08;103495.47;;;4.28;69.73
46534;BME280;32260;52.008;4.752;2023-02-14T04:23:34;103493.38;;;4.20;69.87
46534;BME280;32260;52.008;4.752;2023-02-14T04:26:00;103500.34;;;4.20;69.84
46534;BME280;32260;52.008;4.752;2023-02-14T04:28:28;103506.31;;;4.17;69.64
46534;BME280;32260;52.008;4.752;2023-02-14T04:30:54;103499.31;;;4.16;69.94
46534;BME280;32260;52.008;4.752;2023-02-14T04:33:20;103498.31;;;4.14;69.93
46534;BME280;32260;52.008;4.752;2023-02-14T04:35:48;103498.84;;;4.07;70.03
46534;BME280;32260;52.008;4.752;2023-02-14T04:38:14;103496.38;;;4.10;69.79
46534;BME280;32260;52.008;4.752;2023-02-14T04:40:40;103494.94;;;3.99;70.16
46534;BME280;32260;52.008;4.752;2023-02-14T04:43:06;103496.06;;;4.04;69.89
46534;BME280;32260;52.008;4.752;2023-02-14T04:45:33;103485.41;;;4.01;70.32
46534;BME280;32260;52.008;4.752;2023-02-14T04:47:59;103488.84;;;4.00;70.03
46534;BME280;32260;52.008;4.752;2023-02-14T04:50:25;103487.06;;;3.99;70.14
46534;BME280;32260;52.008;4.752;2023-02-14T04:52:52;103487.97;;;3.99;70.21
46534;BME280;32260;52.008;4.752;2023-02-14T04:55:18;103485.28;;;3.98;70.48
46534;BME280;32260;52.008;4.752;2023-02-14T04:57:45;103478.22;;;3.97;70.26
46534;BME280;32260;52.008;4.752;2023-02-14T05:00:11;103477.34;;;3.96;70.10
46534;BME280;32260;52.008;4.752;2023-02-14T05:02:37;103483.47;;;3.97;70.41
46534;BME280;32260;52.008;4.752;2023-02-14T05:05:04;103486.09;;;3.97;70.07
46534;BME280;32260;52.008;4.752;2023-02-14T05:07:30;103486.91;;;3.96;70.51
46534;BME280;32260;52.008;4.752;2023-02-14T05:09:56;103481.72;;;3.97;69.90
46534;BME280;32260;52.008;4.752;2023-02-14T05:12:23;103482.78;;;4.01;70.11
46534;BME280;32260;52.008;4.752;2023-02-14T05:14:49;103480.34;;;4.04;70.47
46534;BME280;32260;52.008;4.752;2023-02-14T05:17:15;103485.72;;;4.07;70.83
46534;BME280;32260;52.008;4.752;2023-02-14T05:19:42;103482.28;;;4.08;70.36
46534;BME280;32260;52.008;4.752;2023-02-14T05:22:08;103485.88;;;4.10;70.82
46534;BME280;32260;52.008;4.752;2023-02-14T05:24:34;103487.69;;;4.11;70.50
46534;BME280;32260;52.008;4.752;2023-02-14T05:27:00;103486.00;;;4.13;70.97
46534;BME280;32260;52.008;4.752;2023-02-14T05:29:26;103494.06;;;4.16;70.46
46534;BME280;32260;52.008;4.752;2023-02-14T05:31:53;103500.25;;;4.18;70.88
46534;BME280;32260;52.008;4.752;2023-02-14T05:34:19;103490.75;;;4.20;70.65
46534;BME280;32260;52.008;4.752;2023-02-14T05:36:45;103488.13;;;4.20;70.76
46534;BME280;32260;52.008;4.752;2023-02-14T05:39:11;103495.19;;;4.21;71.17
46534;BME280;32260;52.008;4.752;2023-02-14T05:41:39;103494.34;;;4.23;70.70
46534;BME280;32260;52.008;4.752;2023-02-14T05:44:06;103486.38;;;4.21;70.57
46534;BME280;32260;52.008;4.752;2023-02-14T05:46:32;103491.72;;;4.23;70.84
46534;BME280;32260;52.008;4.752;2023-02-14T05:48:58;103495.19;;;4.21;70.57
46534;BME280;32260;52.008;4.752;2023-02-14T05:51:24;103492.47;;;4.20;70.64
46534;BME280;32260;52.008;4.752;2023-02-14T05:53:50;103489.94;;;4.21;71.09
46534;BME280;32260;52.008;4.752;2023-02-14T05:56:16;103489.09;;;4.23;70.88
46534;BME280;32260;52.008;4.752;2023-02-14T05:58:43;103493.50;;;4.24;71.17
46534;BME280;32260;52.008;4.752;2023-02-14T06:01:09;103488.34;;;4.25;71.05
46534;BME280;32260;52.008;4.752;2023-02-14T06:03:35;103490.97;;;4.25;71.25
46534;BME280;32260;52.008;4.752;2023-02-14T06:06:01;103486.63;;;4.26;70.88
46534;BME280;32260;52.008;4.752;2023-02-14T06:08:27;103490.97;;;4.25;71.45
46534;BME280;32260;52.008;4.752;2023-02-14T06:10:53;103491.94;;;4.27;71.65
46534;BME280;32260;52.008;4.752;2023-02-14T06:13:19;103490.06;;;4.25;71.52
46534;BME280;32260;52.008;4.752;2023-02-14T06:15:45;103487.44;;;4.25;71.38
46534;BME280;32260;52.008;4.752;2023-02-14T06:18:11;103489.19;;;4.24;70.83
46534;BME280;32260;52.008;4.752;2023-02-14T06:20:37;103483.00;;;4.24;70.99
46534;BME280;32260;52.008;4.752;2023-02-14T06:23:03;103483.88;;;4.23;71.44
46534;BME280;32260;52.008;4.752;2023-02-14T06:25:31;103485.34;;;4.17;70.88
46534;BME280;32260;52.008;4.752;2023-02-14T06:27:58;103487.81;;;4.14;70.98
46534;BME280;32260;52.008;4.752;2023-02-14T06:30:25;103482.44;;;4.11;70.80
46534;BME280;32260;52.008;4.752;2023-02-14T06:32:52;103488.50;;;4.10;70.87
46534;BME280;32260;52.008;4.752;2023-02-14T06:35:18;103489.31;;;4.09;70.98
46534;BME280;32260;52.008;4.752;2023-02-14T06:37:44;103483.91;;;4.06;70.95
46534;BME280;32260;52.008;4.752;2023-02-14T06:40:11;103477.78;;;4.05;71.16
46534;BME280;32260;52.008;4.752;2023-02-14T06:42:38;103478.66;;;4.06;71.14
46534;BME280;32260;52.008;4.752;2023-02-14T06:45:04;103477.78;;;4.05;71.52
46534;BME280;32260;52.008;4.752;2023-02-14T06:47:31;103482.03;;;4.03;71.99
46534;BME280;32260;52.008;4.752;2023-02-14T06:49:57;103483.78;;;4.03;71.18
46534;BME280;32260;52.008;4.752;2023-02-14T06:52:25;103483.72;;;4.01;71.30
46534;BME280;32260;52.008;4.752;2023-02-14T06:54:51;103481.91;;;4.00;71.07
46534;BME280;32260;52.008;4.752;2023-02-14T06:57:17;103477.59;;;4.02;71.60
46534;BME280;32260;52.008;4.752;2023-02-14T06:59:43;103481.16;;;4.03;71.35
46534;BME280;32260;52.008;4.752;2023-02-14T07:02:10;103481.97;;;4.02;71.57
46534;BME280;32260;52.008;4.752;2023-02-14T07:04:36;103484.44;;;3.99;71.65
46534;BME280;32260;52.008;4.752;2023-02-14T07:07:03;103481.72;;;3.97;71.77
46534;BME280;32260;52.008;4.752;2023-02-14T07:09:29;103482.47;;;3.95;71.54
46534;BME280;32260;52.008;4.752;2023-02-14T07:11:55;103479.84;;;3.95;71.59
46534;BME280;32260;52.008;4.752;2023-02-14T07:14:21;103487.72;;;3.95;71.63
46534;BME280;32260;52.008;4.752;2023-02-14T07:16:47;103488.66;;;3.95;71.39
46534;BME280;32260;52.008;4.752;2023-02-14T07:19:13;103495.59;;;3.95;71.50
46534;BME280;32260;52.008;4.752;2023-02-14T07:21:39;103488.72;;;3.97;71.53
46534;BME280;32260;52.008;4.752;2023-02-14T07:24:06;103490.53;;;3.98;71.36
46534;BME280;32260;52.008;4.752;2023-02-14T07:26:32;103492.16;;;3.96;71.53
46534;BME280;32260;52.008;4.752;2023-02-14T07:28:58;103489.59;;;3.97;71.68
46534;BME280;32260;52.008;4.752;2023-02-14T07:31:24;103489.59;;;3.97;71.65
46534;BME280;32260;52.008;4.752;2023-02-14T07:33:51;103483.59;;;4.00;71.29
46534;BME280;32260;52.008;4.752;2023-02-14T07:36:17;103491.47;;;4.00;71.37
46534;BME280;32260;52.008;4.752;2023-02-14T07:38:44;103497.56;;;3.99;71.34
46534;BME280;32260;52.008;4.752;2023-02-14T07:41:10;103489.69;;;3.99;71.71
46534;BME280;32260;52.008;4.752;2023-02-14T07:43:36;103487.81;;;3.96;71.42
46534;BME280;32260;52.008;4.752;2023-02-14T07:46:03;103494.03;;;3.98;71.67
46534;BME280;32260;52.008;4.752;2023-02-14T07:48:30;103495.91;;;4.01;71.33
46534;BME280;32260;52.008;4.752;2023-02-14T07:50:56;103490.81;;;4.04;71.17
46534;BME280;32260;52.008;4.752;2023-02-14T07:53:23;103502.28;;;4.06;71.33
46534;BME280;32260;52.008;4.752;2023-02-14T07:55:50;103502.38;;;4.08;71.74
46534;BME280;32260;52.008;4.752;2023-02-14T07:58:17;103499.06;;;4.12;71.65
46534;BME280;32260;52.008;4.752;2023-02-14T08:00:44;103502.75;;;4.15;71.46
46534;BME280;32260;52.008;4.752;2023-02-14T08:03:12;103502.88;;;4.18;71.96
46534;BME280;32260;52.008;4.752;2023-02-14T08:05:38;103503.06;;;4.21;71.76
46534;BME280;32260;52.008;4.752;2023-02-14T08:08:04;103504.91;;;4.24;71.21
46534;BME280;32260;52.008;4.752;2023-02-14T08:10:30;103498.94;;;4.27;71.41
46534;BME280;32260;52.008;4.752;2023-02-14T08:12:56;103509.66;;;4.31;71.50
46534;BME280;32260;52.008;4.752;2023-02-14T08:15:24;103504.59;;;4.36;71.44
46534;BME280;32260;52.008;4.752;2023-02-14T08:18:10;103496.06;;;4.40;71.45
46534;BME280;32260;52.008;4.752;2023-02-14T08:20:36;103503.25;;;4.44;71.51
46534;BME280;32260;52.008;4.752;2023-02-14T08:23:02;103505.19;;;4.48;71.74
46534;BME280;32260;52.008;4.752;2023-02-14T08:25:31;103506.25;;;4.52;71.54
46534;BME280;32260;52.008;4.752;2023-02-14T08:27:58;103503.84;;;4.57;71.45
46534;BME280;32260;52.008;4.752;2023-02-14T08:30:25;103504.97;;;4.62;71.79
46534;BME280;32260;52.008;4.752;2023-02-14T08:32:52;103511.34;;;4.67;71.52
46534;BME280;32260;52.008;4.752;2023-02-14T08:35:19;103498.44;;;4.72;71.79
46534;BME280;32260;52.008;4.752;2023-02-14T08:37:45;103505.03;;;4.81;71.78
46534;BME280;32260;52.008;4.752;2023-02-14T08:40:11;103502.69;;;4.88;71.54
46534;BME280;32260;52.008;4.752;2023-02-14T08:42:37;103498.59;;;4.94;71.37
46534;BME280;32260;52.008;4.752;2023-02-14T08:45:04;103495.22;;;4.97;71.72
46534;BME280;32260;52.008;4.752;2023-02-14T08:47:31;103490.41;;;5.06;71.75
46534;BME280;32260;52.008;4.752;2023-02-14T08:50:04;103503.13;;;5.16;71.73
46534;BME280;32260;52.008;4.752;2023-02-14T08:52:30;103493.84;;;5.25;71.77
46534;BME280;32260;52.008;4.752;2023-02-14T08:54:57;103491.50;;;5.31;71.87
46534;BME280;32260;52.008;4.752;2023-02-14T08:57:23;103505.88;;;5.39;71.67
46534;BME280;32260;52.008;4.752;2023-02-14T08:59:50;103492.94;;;5.44;71.91
46534;BME280;32260;52.008;4.752;2023-02-14T09:02:16;103487.94;;;5.50;71.98
46534;BME280;32260;52.008;4.752;2023-02-14T09:04:42;103488.28;;;5.58;71.72
46534;BME280;32260;52.008;4.752;2023-02-14T09:07:08;103487.72;;;5.65;72.13
46534;BME280;32260;52.008;4.752;2023-02-14T09:09:34;103481.06;;;5.73;72.13
46534;BME280;32260;52.008;4.752;2023-02-14T09:12:03;103484.13;;;5.84;71.93
46534;BME280;32260;52.008;4.752;2023-02-14T09:14:33;103476.53;;;5.92;72.01
46534;BME280;32260;52.008;4.752;2023-02-14T09:16:59;103479.59;;;6.01;71.89
46534;BME280;32260;52.008;4.752;2023-02-14T09:19:31;103474.69;;;6.10;72.36
46534;BME280;32260;52.008;4.752;2023-02-14T09:21:57;103473.41;;;6.22;72.20
46534;BME280;32260;52.008;4.752;2023-02-14T09:24:23;103480.03;;;6.33;72.29
46534;BME280;32260;52.008;4.752;2023-02-14T09:26:49;103482.28;;;6.46;72.13
46534;BME280;32260;52.008;4.752;2023-02-14T09:29:15;103474.81;;;6.57;72.07
46534;BME280;32260;52.008;4.752;2023-02-14T09:31:41;103469.16;;;6.69;72.10
46534;BME280;32260;52.008;4.752;2023-02-14T09:34:07;103482.84;;;6.83;72.05
46534;BME280;32260;52.008;4.752;2023-02-14T09:36:33;103478.91;;;6.96;72.36
46534;BME280;32260;52.008;4.752;2023-02-14T09:39:19;103472.44;;;7.10;71.94
46534;BME280;32260;52.008;4.752;2023-02-14T09:42:55;103473.91;;;7.26;72.08
46534;BME280;32260;52.008;4.752;2023-02-14T09:44:56;103480.72;;;7.45;72.25
46534;BME280;32260;52.008;4.752;2023-02-14T09:47:46;103469.69;;;7.57;72.64
46534;BME280;32260;52.008;4.752;2023-02-14T09:50:21;103469.84;;;7.62;72.60
46534;BME280;32260;52.008;4.752;2023-02-14T09:52:52;103463.19;;;7.73;72.37
46534;BME280;32260;52.008;4.752;2023-02-14T09:55:20;103464.34;;;7.82;71.54
46534;BME280;32260;52.008;4.752;2023-02-14T09:58:08;103469.41;;;8.01;71.26
46534;BME280;32260;52.008;4.752;2023-02-14T10:00:44;103465.09;;;8.05;71.25
46534;BME280;32260;52.008;4.752;2023-02-14T10:05:56;103471.91;;;8.24;71.59
46534;BME280;32260;52.008;4.752;2023-02-14T10:08:40;103468.66;;;8.33;71.37
46534;BME280;32260;52.008;4.752;2023-02-14T10:11:12;103466.16;;;8.37;70.81
46534;BME280;32260;52.008;4.752;2023-02-14T10:13:45;103471.78;;;8.48;70.91
46534;BME280;32260;52.008;4.752;2023-02-14T10:16:36;103465.09;;;8.60;69.78
46534;BME280;32260;52.008;4.752;2023-02-14T10:19:25;103462.13;;;8.78;69.64
46534;BME280;32260;52.008;4.752;2023-02-14T10:21:58;103469.38;;;8.85;69.30
46534;BME280;32260;52.008;4.752;2023-02-14T10:27:38;103461.28;;;9.11;69.21
46534;BME280;32260;52.008;4.752;2023-02-14T10:30:23;103461.72;;;9.26;68.62
46534;BME280;32260;52.008;4.752;2023-02-14T10:33:27;103456.50;;;9.29;68.95
46534;BME280;32260;52.008;4.752;2023-02-14T10:35:49;103455.16;;;9.44;69.29
46534;BME280;32260;52.008;4.752;2023-02-14T10:38:47;103445.91;;;9.61;68.51
46534;BME280;32260;52.008;4.752;2023-02-14T10:41:23;103454.00;;;9.67;68.29
46534;BME280;32260;52.008;4.752;2023-02-14T10:46:39;103450.19;;;9.91;68.06
46534;BME280;32260;52.008;4.752;2023-02-14T10:52:00;103443.66;;;10.13;67.73
46534;BME280;32260;52.008;4.752;2023-02-14T10:54:38;103445.59;;;10.20;66.33
46534;BME280;32260;52.008;4.752;2023-02-14T10:57:12;103445.03;;;10.35;66.60
46534;BME280;32260;52.008;4.752;2023-02-14T11:02:42;103434.66;;;10.45;65.50
46534;BME280;32260;52.008;4.752;2023-02-14T11:05:25;103438.53;;;10.59;66.06
46534;BME280;32260;52.008;4.752;2023-02-14T11:07:52;103434.09;;;10.58;64.75
46534;BME280;32260;52.008;4.752;2023-02-14T11:10:22;103422.81;;;10.68;65.80
46534;BME280;32260;52.008;4.752;2023-02-14T11:12:49;103425.63;;;10.78;65.35
46534;BME280;32260;52.008;4.752;2023-02-14T11:18:08;103424.50;;;11.09;64.33
46534;BME280;32260;52.008;4.752;2023-02-14T11:20:35;103425.47;;;11.13;64.80
46534;BME280;32260;52.008;4.752;2023-02-14T11:23:02;103415.00;;;11.22;63.59
46534;BME280;32260;52.008;4.752;2023-02-14T11:25:50;103403.88;;;11.42;63.27
46534;BME280;32260;52.008;4.752;2023-02-14T11:28:18;103401.38;;;11.51;64.26
46534;BME280;32260;52.008;4.752;2023-02-14T11:30:46;103406.78;;;11.59;63.13
46534;BME280;32260;52.008;4.752;2023-02-14T11:33:33;103392.94;;;11.75;63.60
46534;BME280;32260;52.008;4.752;2023-02-14T11:36:10;103394.75;;;11.78;62.90
46534;BME280;32260;52.008;4.752;2023-02-14T11:38:39;103394.09;;;11.94;62.99
46534;BME280;32260;52.008;4.752;2023-02-14T11:41:08;103389.84;;;12.03;62.15
46534;BME280;32260;52.008;4.752;2023-02-14T11:43:39;103391.88;;;12.22;63.13
46534;BME280;32260;52.008;4.752;2023-02-14T11:49:01;103378.81;;;12.41;61.30
46534;BME280;32260;52.008;4.752;2023-02-14T11:51:30;103374.47;;;12.46;62.84
46534;BME280;32260;52.008;4.752;2023-02-14T11:54:00;103370.19;;;12.57;61.15
46534;BME280;32260;52.008;4.752;2023-02-14T11:56:50;103365.97;;;12.75;60.62
46534;BME280;32260;52.008;4.752;2023-02-14T11:59:26;103357.06;;;12.74;61.39
46534;BME280;32260;52.008;4.752;2023-02-14T12:01:53;103358.06;;;12.83;59.64
46534;BME280;32260;52.008;4.752;2023-02-14T12:07:54;103340.50;;;12.99;58.25
46534;BME280;32260;52.008;4.752;2023-02-14T12:32:33;103325.22;;;13.85;58.03
46534;BME280;32260;52.008;4.752;2023-02-14T12:34:49;103317.25;;;13.91;56.84
46534;BME280;32260;52.008;4.752;2023-02-14T12:37:25;103320.84;;;13.97;56.00
46534;BME280;32260;52.008;4.752;2023-02-14T12:42:53;103310.28;;;14.15;55.28
46534;BME280;32260;52.008;4.752;2023-02-14T12:45:36;103310.28;;;14.21;56.11
46534;BME280;32260;52.008;4.752;2023-02-14T12:50:02;103302.34;;;14.34;56.79
46534;BME280;32260;52.008;4.752;2023-02-14T12:57:22;103286.41;;;14.51;54.75
46534;BME280;32260;52.008;4.752;2023-02-14T13:06:00;103267.78;;;14.74;53.84
46534;BME280;32260;52.008;4.752;2023-02-14T13:14:51;103267.78;;;14.80;51.94
46534;BME280;32260;52.008;4.752;2023-02-14T13:22:39;103258.03;;;14.93;53.66
46534;BME280;32260;52.008;4.752;2023-02-14T13:28:00;103253.59;;;15.00;53.29
46534;BME280;32260;52.008;4.752;2023-02-14T13:30:30;103245.56;;;15.00;51.46
46534;BME280;32260;52.008;4.752;2023-02-14T13:33:01;103244.69;;;15.09;52.91
46534;BME280;32260;52.008;4.752;2023-02-14T13:35:31;103245.56;;;15.14;53.11
46534;BME280;32260;52.008;4.752;2023-02-14T13:38:02;103234.91;;;15.15;51.51
46534;BME280;32260;52.008;4.752;2023-02-14T13:40:33;103234.88;;;15.17;50.60
46534;BME280;32260;52.008;4.752;2023-02-14T13:43:03;103226.88;;;15.17;52.18
46534;BME280;32260;52.008;4.752;2023-02-14T13:51:10;103216.13;;;15.40;51.76
46534;BME280;32260;52.008;4.752;2023-02-14T13:53:42;103217.03;;;15.41;51.93
46534;BME280;32260;52.008;4.752;2023-02-14T13:58:55;103215.25;;;15.44;50.28
46534;BME280;32260;52.008;4.752;2023-02-14T14:09:53;103217.94;;;15.41;50.16
46534;BME280;32260;52.008;4.752;2023-02-14T14:20:48;103217.03;;;15.44;48.85
46534;BME280;32260;52.008;4.752;2023-02-14T14:23:33;103222.38;;;15.53;48.96
46534;BME280;32260;52.008;4.752;2023-02-14T14:25:59;103215.25;;;15.49;50.13
46534;BME280;32260;52.008;4.752;2023-02-14T14:28:30;103210.78;;;15.46;48.74
46534;BME280;32260;52.008;4.752;2023-02-14T14:30:57;103222.38;;;15.47;48.75
46534;BME280;32260;52.008;4.752;2023-02-14T14:36:05;103211.66;;;15.50;49.39
46534;BME280;32260;52.008;4.752;2023-02-14T14:38:46;103215.22;;;15.57;49.86
46534;BME280;32260;52.008;4.752;2023-02-14T14:41:13;103214.34;;;15.51;49.32
46534;BME280;32260;52.008;4.752;2023-02-14T14:43:39;103212.56;;;15.52;48.96
46534;BME280;32260;52.008;4.752;2023-02-14T14:46:09;103202.75;;;15.56;49.92
46534;BME280;32260;52.008;4.752;2023-02-14T14:48:44;103197.38;;;15.59;49.03
46534;BME280;32260;52.008;4.752;2023-02-14T14:51:31;103197.38;;;15.63;49.29
46534;BME280;32260;52.008;4.752;2023-02-14T14:54:01;103194.72;;;15.57;49.89
46534;BME280;32260;52.008;4.752;2023-02-14T14:56:33;103186.72;;;15.56;49.57
46534;BME280;32260;52.008;4.752;2023-02-14T15:01:58;103193.00;;;15.45;49.70
46534;BME280;32260;52.008;4.752;2023-02-14T15:04:29;103194.75;;;15.40;49.04
46534;BME280;32260;52.008;4.752;2023-02-14T15:06:58;103197.47;;;15.37;48.92
46534;BME280;32260;52.008;4.752;2023-02-14T15:09:41;103191.22;;;15.35;49.06
46534;BME280;32260;52.008;4.752;2023-02-14T15:12:08;103188.56;;;15.33;49.13
46534;BME280;32260;52.008;4.752;2023-02-14T15:14:56;103192.13;;;15.32;48.70
46534;BME280;32260;52.008;4.752;2023-02-14T15:17:30;103192.16;;;15.34;49.92
46534;BME280;32260;52.008;4.752;2023-02-14T15:20:00;103194.81;;;15.28;49.19
46534;BME280;32260;52.008;4.752;2023-02-14T15:22:30;103193.03;;;15.39;49.45
46534;BME280;32260;52.008;4.752;2023-02-14T15:24:59;103182.38;;;15.27;49.67
46534;BME280;32260;52.008;4.752;2023-02-14T15:27:26;103187.69;;;15.24;50.08
46534;BME280;32260;52.008;4.752;2023-02-14T15:29:59;103185.03;;;15.22;49.99
46534;BME280;32260;52.008;4.752;2023-02-14T15:32:29;103178.81;;;15.18;49.99
46534;BME280;32260;52.008;4.752;2023-02-14T15:35:00;103182.38;;;15.14;50.07
46534;BME280;32260;52.008;4.752;2023-02-14T15:37:34;103182.38;;;15.08;50.19
46534;BME280;32260;52.008;4.752;2023-02-14T15:40:01;103181.50;;;14.98;48.90
46534;BME280;32260;52.008;4.752;2023-02-14T15:42:30;103179.75;;;14.90;48.96
46534;BME280;32260;52.008;4.752;2023-02-14T15:47:59;103171.72;;;14.80;50.21